Tiempo atmosférico en la estación meteorológica de Ourense, Ourense (143 m.)



Fecha
DESCASC
Temp. máxima en grados centígrados (hora)
DESCASC
Temp. mínima en grados centígrados (hora)
DESCASC
Temp. media en grados centígrados
DESCASC
Racha de viento máxima en m/sg (hora)
DESCASC
Velocidad máxima media en intervalos de 10 minutos(hora)
DESCASC
Precipitaciones diarias en mm
DESCASC
Precipitaciones de 00:00 a 06:00 en mm
DESCASC
Precipitaciones de 06:00 a 12:00 en mm
DESCASC
Precipitaciones de 12:00 a 18:00 en mm
DESCASC
Precipitaciones de 18:00 a 24:00 en mm
DESCASC
23-06-2019 25.8 (18:10) 14.2 (05:30) 20 6.67 (18:30) 3.33 (18:50) 18.8 9.6 9.2 0 0
22-06-2019 28.2 (15:10) 12.9 (06:40) 20.6 7.5 (15:30) 3.89 (16:10) 0 0 0 0 0
21-06-2019 28 (20:00) 13.7 (04:20) 20.8 5.83 (17:50) 2.22 (18:30) 0 0 0 0 0
20-06-2019 25.2 (17:10) 15.4 (00:00) 20.3 5.28 (15:20) 2.5 (15:30) 1.6 0 0 0 1.6
19-06-2019 21.3 (14:50) 15.7 (00:00) 18.5 5.28 (15:50) 2.5 (14:40) 1 1 0 0 0
18-06-2019 21.9 (14:40) 11.9 (00:00) 16.9 10.83 (14:50) 4.72 (16:00) 2.2 0 0.6 1.6 0
17-06-2019 26.7 (20:50) 10.7 (00:00) 18.7 5 (21:30) 2.5 (16:10) 0 0 0 0 0
16-06-2019 28.9 (18:20) 6.4 (00:00) 17.6 7.78 (19:10) 3.33 (19:10) 0 0 0 0 0
15-06-2019 21.8 (19:10) 12.6 (00:00) 17.2 6.67 (17:00) 2.5 (19:20) 0 0 0 0 0
14-06-2019 21.2 (13:30) 7.1 (00:00) 14.2 7.78 (16:30) 3.89 (18:30) 0 0 0 0 0
13-06-2019 22 (18:20) 6.9 (00:00) 14.5 6.39 (19:10) 2.5 (15:50) 0 0 0 0 0
12-06-2019 20.9 (17:20) 6.3 (00:00) 13.6 5.28 (20:40) 2.5 (21:10) 0 0 0 0 0
11-06-2019 21.2 (18:00) 12.4 (00:00) 16.8 7.22 (18:20) 2.5 (19:10) 0 0 0 0 0
10-06-2019 22.3 (17:40) 7.3 (00:00) 14.8 6.11 (18:50) 2.22 (18:50) 0 0 0 0 0
09-06-2019 22.5 (15:40) 7.2 (00:00) 14.8 6.94 (19:10) 3.06 (17:40) 0 0 0 0 0
08-06-2019 21.5 (16:30) 4.8 (00:00) 13.2 6.11 (18:30) 2.78 (15:50) 0 0 0 0 0
07-06-2019 19.5 (18:50) 8.9 (00:00) 14.2 7.78 (18:50) 3.61 (18:50) 5.8 3.4 1.4 1 0
06-06-2019 17.9 (12:50) 10.6 (00:00) 14.3 12.78 (12:40) 5 (12:50) 7.6 0 0 6 1.6
05-06-2019 19.7 (18:20) 10.3 (00:00) 15 8.89 (15:20) 4.17 (18:30) 0 0 0 0 0
04-06-2019 22.3 (17:30) 13.1 (00:00) 17.7 8.89 (18:30) 4.44 (16:10) 0.2 0 0.2 0 0
03-06-2019 27.3 (16:00) 16.4 (00:00) 21.8 8.33 (17:20) 4.17 (17:30) 0 0 0 0 0
02-06-2019 29.8 (17:50) 10.6 (00:00) 20.2 7.5 (15:20) 3.33 (17:40) 0 0 0 0 0
01-06-2019 34.9 (16:50) 13.3 (00:00) 24.1 8.33 (17:50) 3.89 (16:30) 0 0 0 0 0
31-05-2019 36.6 (17:10) 13.7 (00:00) 25.1 7.5 (19:20) 3.33 (19:10) 0 0 0 0 0
30-05-2019 34.7 (18:40) 11.7 (00:00) 23.2 5.56 (20:40) 2.22 (17:00) 0 0 0 0 0
29-05-2019 31 (18:30) 7.9 (00:00) 19.5 5.83 (17:40) 2.5 (13:50) 0 0 0 0 0
28-05-2019 24.9 (17:00) 8.7 (00:00) 16.8 7.5 (19:20) 2.22 (16:00) 0 0 0 0 0
27-05-2019 26.2 (17:00) 11.9 (00:00) 19.1 7.5 (18:30) 2.78 (18:30) 0 0 0 0 0

Gráficas

Temp. máximas Temp. mínimas Temp. medias Precipitaciones Rachas de viento máximas Velocidades máximas media en intervalos de 10 minutos

Datos horarios

Fecha y hora oficial Temperatura (ºC) Velocidad del viento (km/h) Dirección del viento Racha (km/h) Dirección de racha Precipitación (mm) Presión (hPa) Tendencia (hPa) Humedad (%)
2019-06-25 23:00:00 19 3 Oeste 6 Nordeste 0 997.9 0.8 82
2019-06-25 22:00:00 19.4 4 Oeste 10 Noroeste 0 998 1.8 77
2019-06-25 21:00:00 21.2 2 Sudeste 22 Sudoeste 3.4 997.9 0.9 80
2019-06-25 20:00:00 25.6 4 Este 14 Nordeste 0 997.1 -0.2 48
2019-06-25 19:00:00 27 5 Norte 14 Nordeste 0 996.2 -1.4 43
2019-06-25 18:00:00 27 4 Este 17 Oeste 0 997 -0.9 39
2019-06-25 17:00:00 26.5 6 Nordeste 15 Nordeste 0 997.3 -1 38
2019-06-25 16:00:00 25.7 3 Este 13 Este 0 997.6 -0.9 41
2019-06-25 15:00:00 25.1 4 Sudoeste 13 Noroeste 0 997.9 -0.7 41
2019-06-25 14:00:00 24.5 5 Oeste 13 Oeste 0 998.3 -0.6 39
2019-06-25 13:00:00 23.8 3 Noroeste 12 Noroeste 0 998.5 -0.4 41
2019-06-25 12:00:00 21 4 Oeste 9 Oeste 0 998.6 -0.2 70
2019-06-25 11:00:00 18.3 4 Oeste 8 Oeste 0 998.9 0.3 78
2019-06-25 10:00:00 16.3 3 Oeste 6 Noroeste 0 998.9 0.6 86
2019-06-25 09:00:00 14.7 3 Sur 9 Oeste 0 998.8 0.8 91
2019-06-25 08:00:00 13.8 0 Calma 8 Oeste 0 998.6 0.9 89
2019-06-25 07:00:00 14 0 Calma 7 Noroeste 0 998.3 0.4 89
2019-06-25 06:00:00 14.6 0 Calma 5 Oeste 0 998 -0.2 89
2019-06-25 05:00:00 15.1 3 Sudoeste 7 Este 0 997.7 -0.4 87
2019-06-25 04:00:00 16.2 0 Calma 5 Este 0 997.9 -0.2 85
2019-06-25 03:00:00 17.4 4 Oeste 6 Oeste 0 998.2 0.2 81
2019-06-25 02:00:00 18 3 Sudeste 6 Sudeste 0 998.1 0.6 77
2019-06-25 01:00:00 18.6 3 Sudeste 8 Sudeste 0 998.1 1.3 75
2019-06-25 00:00:00 19.1 4 Sudeste 9 Sudeste 0 998 1.5 72
2019-06-24 23:00:00 19.8 4 Sur 9 Sur 0 997.5 1.3 68
2019-06-24 22:00:00 20.6 4 Sudoeste 10 Oeste 0 996.8 1 62
2019-06-24 21:00:00 21.5 4 Oeste 11 Oeste 0 996.5 0.7 59
2019-06-24 20:00:00 21.9 6 Sudoeste 18 Oeste 0 996.2 0.3 57
2019-06-24 19:00:00 22.4 9 Oeste 16 Oeste 0 995.8 0.1 53
2019-06-24 18:00:00 23.2 4 Noroeste 9 Oeste 0 995.8 -0.3 53
2019-06-24 17:00:00 22.6 4 Oeste 14 Oeste 0 995.9 -0.7 56
2019-06-24 16:00:00 23.2 5 Noroeste 13 Oeste 0 995.7 -0.6 56
2019-06-24 15:00:00 21.3 5 Noroeste 11 Oeste 0 996.1 -0.2 62
2019-06-24 14:00:00 19.7 3 Norte 9 Noroeste 0 996.6 0.5 68
2019-06-24 13:00:00 18.3 2 Norte 8 Nordeste 0 996.3 0.1 77
2019-06-24 12:00:00 17.5 2 Sudoeste 6 Sur 0 996.3 0.4 84
2019-06-24 11:00:00 17 4 Sudoeste 8 Oeste 0 996.1 0.2 85
2019-06-24 10:00:00 15.9 0 Calma 7 Oeste 0.2 996.2 0.9 89
2019-06-24 09:00:00 15.6 2 Oeste 5 Oeste 0.2 995.9 0.7 89
2019-06-24 08:00:00 15.5 3 Sur 5 Sudeste 0 995.9 0.8 87
2019-06-24 07:00:00 15.6 4 Oeste 10 Nordeste 0 995.3 0.3 85
2019-06-24 06:00:00 16 4 Sur 7 Sur 0 995.2 -0.5 85
2019-06-24 05:00:00 16.5 4 Este 10 Oeste 0 995.1 -0.8 83
2019-06-24 04:00:00 16.8 5 Oeste 9 Oeste 0 995 -0.8 82
2019-06-24 03:00:00 17.4 2 Sudeste 6 Sudoeste 0 995.7 0 82
2019-06-24 02:00:00 17.8 0 Calma 5 Oeste 0 995.9 0.8 81
2019-06-24 01:00:00 18.4 0 Calma 5 Oeste 0 995.8 1.4 79
2019-06-24 00:00:00 19.2 2 Oeste 6 Sudoeste 0 995.7 1.4 75
2019-06-23 23:00:00 19.8 4 Sudoeste 9 Sudeste 0 995.1 1.3 70
2019-06-23 22:00:00 20.7 4 Sur 10 Sudoeste 0 994.4 1 65
2019-06-23 21:00:00 21.7 5 Sudoeste 11 Oeste 0 994.3 1 59
2019-06-23 20:00:00 23 4 Sudoeste 19 Sudoeste 0 993.8 0.2 55
2019-06-23 19:00:00 24.2 11 Sudoeste 24 Sudoeste 0 993.4 -0.6 51
2019-06-23 18:00:00 25.3 8 Sudoeste 16 Sudoeste 0 993.3 -0.9 53
2019-06-23 17:00:00 24.7 8 Oeste 17 Oeste 0 993.6 -0.7 58
2019-06-23 16:00:00 22.4 5 Sudoeste 15 Sur 0 994 0.1 69
2019-06-23 15:00:00 21.6 7 Sur 14 Sur 0 994.2 0.3 69
2019-06-23 14:00:00 21.2 4 Sudoeste 14 Sur 0 994.3 0.1 75
2019-06-23 13:00:00 21 4 Sudoeste 8 Sudoeste 0 993.9 -0.1 76
2019-06-23 12:00:00 18.4 3 Oeste 6 Oeste 0 993.9 0.3 83
2019-06-23 11:00:00 16.3 3 Oeste 8 Sudoeste 0 994.2 1.1 90
2019-06-23 10:00:00 15 0 Calma 10 Oeste 3.8 994 0.9 94
2019-06-23 09:00:00 14.6 5 Nordeste 9 Nordeste 4.6 993.6 0 93
2019-06-23 08:00:00 14.5 2 Norte 8 Norte 0.6 993.1 -0.7 93
2019-06-23 07:00:00 14.4 2 Nordeste 6 Este 0.2 993.1 -0.5 93
2019-06-23 06:00:00 14.3 2 Sur 5 Sudoeste 0 993.6 -0.9 92
2019-06-23 05:00:00 14.4 3 Norte 11 Noroeste 1.2 993.8 -1.2 91
2019-06-23 04:00:00 14.4 3 Sur 13 Sudeste 2.4 993.6 -0.3 88
2019-06-23 03:00:00 14.9 4 Este 12 Sudeste 4 994.5 0.6 84
2019-06-23 02:00:00 16.6 5 Sudeste 12 Sudeste 2 995 1.1 79
2019-06-23 01:00:00 19.1 4 Sudoeste 8 Oeste 0 993.9 0.3 58
2019-06-23 00:00:00 19.7 4 Oeste 9 Oeste 0 993.9 0.2 57
2019-06-22 23:00:00 20.6 3 Sudoeste 9 Oeste 0 993.9 0.5 53
2019-06-22 22:00:00 21.8 3 Sudoeste 5 Sur 0 993.6 0.4 47
2019-06-22 21:00:00 22.9 3 Sudoeste 10 Sur 0 993.7 0.3 37
2019-06-22 20:00:00 23.5 2 Sudeste 14 Sudoeste 0 993.4 0.1 42
2019-06-22 19:00:00 24.1 7 Sudoeste 17 Sudoeste 0 993.2 0 44
2019-06-22 18:00:00 25 8 Sudoeste 25 Noroeste 0 993.4 0 41
2019-06-22 17:00:00 27 10 Sudoeste 26 Oeste 0 993.3 -0.7 43
2019-06-22 16:00:00 27 13 Sudoeste 27 Sudoeste 0 993.2 -1.4 42
2019-06-22 15:00:00 27.6 12 Oeste 23 Oeste 0 993.4 -1.9 45
2019-06-22 14:00:00 25.4 4 Norte 15 Norte 0 994 -1.7 50
2019-06-22 13:00:00 23.1 5 Noroeste 14 Noroeste 0 994.6 -1.9 56
2019-06-22 12:00:00 22.1 4 Norte 12 Este 0 995.3 -1.3 62
2019-06-22 11:00:00 19.8 3 Norte 10 Noroeste 0 995.7 -1.1 66
2019-06-22 10:00:00 16.6 4 Noroeste 9 Oeste 0 996.5 0 78
2019-06-22 09:00:00 14.3 4 Sudoeste 8 Sur 0 996.6 -0.6 86
2019-06-22 08:00:00 13.1 0 Calma 5 Oeste 0 996.8 -0.8 88
2019-06-22 07:00:00 12.9 2 Sudeste 5 Oeste 0 996.5 -1.3 88
2019-06-22 06:00:00 13.2 0 Calma 5 Sudeste 0 997.2 -0.8 86
2019-06-22 05:00:00 13.7 3 Sudeste 6 Oeste 0 997.6 -0.6 85
2019-06-22 04:00:00 14.3 2 Este 6 Oeste 0 997.8 -0.4 83
2019-06-22 03:00:00 15.2 3 Sudeste 6 Oeste 0 998 -0.6 80
2019-06-22 02:00:00 16.6 2 Sur 6 Oeste 0 998.2 -0.2 76
2019-06-22 01:00:00 17.9 3 Oeste 6 Oeste 0 998.2 0.1 70
2019-06-22 00:00:00 20.3 0 Calma 9 Oeste 0 998.6 0.9 62
2019-06-21 23:00:00 22.1 3 Nordeste 12 Oeste 0 998.4 0.9 55
2019-06-21 22:00:00 23.9 5 Oeste 13 Oeste 0 998.1 0.5 50
2019-06-21 21:00:00 25.9 6 Oeste 15 Oeste 0 997.7 -0.5 39
2019-06-21 20:00:00 28 5 Sudoeste 16 Oeste 0 997.5 -1 35
2019-06-21 19:00:00 27.3 5 Norte 20 Oeste 0 997.6 -1.3 36
2019-06-21 18:00:00 26.8 5 Oeste 21 Oeste 0 998.2 -1.3 37
2019-06-21 17:00:00 26.7 6 Noroeste 21 Oeste 0 998.5 -1.6 38
2019-06-21 16:00:00 25.4 5 Norte 18 Noroeste 0 998.9 -1.6 40
2019-06-21 15:00:00 25 5 Oeste 15 Sudeste 0 999.5 -1.3 41
2019-06-21 14:00:00 22.9 4 Norte 13 Sur 0 1000.1 -1.1 49
2019-06-21 13:00:00 21.3 4 Norte 11 Nordeste 0 1000.5 -1 54
2019-06-21 12:00:00 19.4 5 Oeste 8 Sur 0 1000.8 -0.4 64
2019-06-21 11:00:00 17.6 3 Sudoeste 6 Sur 0 1001.2 0.2 73
2019-06-21 10:00:00 16.1 3 Sur 6 Sudoeste 0 1001.5 1 77
2019-06-21 09:00:00 14.9 3 Sudoeste 5 Nordeste 0 1001.2 0.8 84
2019-06-21 08:00:00 14.2 0 Calma 4 Norte 0 1001 0.5 86
2019-06-21 07:00:00 14.1 0 Calma 5 Oeste 0 1000.5 0 88
2019-06-21 06:00:00 14.1 0 Calma 6 Nordeste 0 1000.4 -0.1 86
2019-06-21 05:00:00 13.8 2 Sur 4 Sudoeste 0 1000.5 0.2 89
2019-06-21 04:00:00 13.8 2 Sudeste 4 Sudeste 0 1000.5 0.4 87
2019-06-21 03:00:00 14.5 4 Oeste 7 Noroeste 0 1000.5 0.6 82
2019-06-21 02:00:00 15.5 0 Calma 6 Oeste 0 1000.3 1.2 77
2019-06-21 01:00:00 15.8 0 Calma 6 Oeste 0 1000.1 1.8 78
2019-06-21 00:00:00 16.2 2 Sur 6 Sudoeste 0 999.9 2.1 81
2019-06-20 23:00:00 17.1 2 Nordeste 11 Nordeste 0.2 999.1 1.4 75
2019-06-20 22:00:00 17.9 4 Oeste 10 Oeste 0.4 998.3 1 77
2019-06-20 21:00:00 18.7 4 Noroeste 8 Sudoeste 0 997.8 1 71
2019-06-20 20:00:00 19 3 Oeste 18 Noroeste 0.6 997.7 1 69
2019-06-20 19:00:00 20.8 5 Nordeste 18 Noroeste 0.4 997.3 0.4 64
2019-06-20 18:00:00 22.9 3 Nordeste 17 Nordeste 0 996.8 -0.4 50
2019-06-20 17:00:00 25.1 5 Norte 17 Este 0 996.7 -0.9 46
2019-06-20 16:00:00 24.7 4 Norte 19 Oeste 0 996.9 -0.9 49
2019-06-20 15:00:00 23.6 4 Norte 15 Oeste 0 997.2 -0.7 51
2019-06-20 14:00:00 23.4 3 Norte 12 Oeste 0 997.6 -0.3 50
2019-06-20 13:00:00 22 5 Noroeste 15 Nordeste 0 997.8 -0.3 57
2019-06-20 12:00:00 21.6 5 Norte 16 Nordeste 0 997.9 -0.4 57
2019-06-20 11:00:00 19.5 3 Norte 12 Este 0 997.9 -0.1 65
2019-06-20 10:00:00 18.3 3 Noroeste 10 Norte 0 998.1 -0.1 71
2019-06-20 09:00:00 16.6 0 Calma 5 Sur 0 998.3 0.3 82
2019-06-20 08:00:00 15.8 2 Sudoeste 4 Sudoeste 0 998 -0.1 87
2019-06-20 07:00:00 15.4 0 Calma 3 Sudoeste 0 998.2 -0.2 87
2019-06-20 06:00:00 15.6 3 Oeste 3 Oeste 0 998 -0.7 87
2019-06-20 05:00:00 15.8 0 Calma 4 Oeste 0 998.1 -0.6 85
2019-06-20 04:00:00 16.2 0 Calma 4 Sudeste 0 998.4 -0.5 83
2019-06-20 03:00:00 16.7 0 Calma 5 Sudeste 0 998.7 0 81
2019-06-20 02:00:00 17.2 0 Calma 5 Sudeste 0 998.7 0.2 79
2019-06-20 01:00:00 17.7 0 Calma 6 Sudeste 0 998.9 0.8 77
2019-06-20 00:00:00 18.3 0 Calma 5 Sudoeste 0 998.7 0.6 74
2019-06-19 23:00:00 18.7 3 Sudoeste 6 Sudoeste 0 998.5 0.6 72
2019-06-19 22:00:00 19.3 3 Sudoeste 10 Oeste 0 998.1 0.2 69
2019-06-19 21:00:00 19.9 5 Oeste 11 Oeste 0 998.1 0.3 65
2019-06-19 20:00:00 20.2 4 Norte 12 Noroeste 0 997.9 0.1 64
2019-06-19 19:00:00 20.4 4 Oeste 14 Oeste 0 997.9 0.1 66
2019-06-19 18:00:00 20.5 5 Oeste 17 Sudoeste 0 997.8 0.2 64
2019-06-19 17:00:00 20.6 4 Sur 15 Sudoeste 0 997.8 0.2 64
2019-06-19 16:00:00 20.4 7 Sudoeste 19 Sudoeste 0 997.8 0.3 65
2019-06-19 15:00:00 21 8 Oeste 19 Oeste 0 997.6 0.7 64
2019-06-19 14:00:00 20.5 6 Oeste 17 Noroeste 0 997.6 1 64
2019-06-19 13:00:00 19.6 8 Oeste 16 Oeste 0 997.5 0.8 68
2019-06-19 12:00:00 19.6 2 Oeste 12 Sur 0 996.9 0.7 66
2019-06-19 11:00:00 18.7 7 Sur 13 Sur 0 996.6 0.8 73
2019-06-19 10:00:00 17.8 7 Sudoeste 16 Sudoeste 0 996.7 1.3 78
2019-06-19 09:00:00 16.6 5 Sudeste 10 Sudeste 0 996.2 0.8 84
2019-06-19 08:00:00 15.8 0 Calma 6 Sudeste 0 995.8 0.6 88
2019-06-19 07:00:00 15.7 4 Sudeste 8 Sudeste 0 995.4 0.2 90
2019-06-19 06:00:00 15.9 4 Sudeste 8 Sur 0 995.4 0.3 90
2019-06-19 05:00:00 15.9 0 Calma 4 Sudeste 0.2 995.2 0.3 92
2019-06-19 04:00:00 16 3 Este 6 Este 0.8 995.2 0.1 91
2019-06-19 03:00:00 16.6 2 Sudeste 4 Sudeste 0 995.1 -0.2 86
2019-06-19 02:00:00 17.1 2 Oeste 10 Sudoeste 0 994.9 0.2 79
2019-06-19 01:00:00 17.5 4 Sudeste 9 Sudeste 0 995.1 0.9 76
2019-06-19 00:00:00 17.6 5 Sur 13 Sur 0 995.3 1.5 75
2019-06-18 23:00:00 17.9 7 Sur 14 Sur 0 994.7 1.2 75
2019-06-18 22:00:00 18.7 5 Oeste 12 Oeste 0 994.2 1 72
2019-06-18 21:00:00 19.2 5 Sudoeste 16 Sudoeste 0 993.8 0.7 72
2019-06-18 20:00:00 19.8 4 Oeste 17 Sudeste 0 993.5 0.7 74
2019-06-18 19:00:00 19.5 3 Sudeste 9 Este 0 993.2 0.7 79
2019-06-18 18:00:00 18.3 2 Oeste 11 Oeste 0.8 993.1 1.2 88
2019-06-18 17:00:00 18.5 2 Sudeste 29 Sur 0.8 992.8 0.6 81
2019-06-18 16:00:00 20.6 17 Sur 34 Sur 0 992.5 -0.3 61
2019-06-18 15:00:00 21.7 14 Sur 39 Sudeste 0 991.9 -0.6 52
2019-06-18 14:00:00 21.2 13 Sur 29 Sudoeste 0 992.2 -0.8 57
2019-06-18 13:00:00 19.6 11 Sudoeste 23 Sudoeste 0 992.8 -0.7 71
2019-06-18 12:00:00 18.1 5 Oeste 10 Oeste 0 992.5 -1 70
2019-06-18 11:00:00 15.7 3 Sudeste 5 Sudeste 0 993 -0.3 82
2019-06-18 10:00:00 14 3 Sudoeste 6 Noroeste 0 993.5 0.4 89
2019-06-18 09:00:00 12.9 3 Sur 9 Sudoeste 0.2 993.5 0.3 89
2019-06-18 08:00:00 12.4 3 Sudoeste 7 Oeste 0.4 993.3 0.4 87
2019-06-18 07:00:00 12.1 0 Calma 8 Sudoeste 0 993.1 -0.3 82
2019-06-18 06:00:00 11.9 3 Sur 8 Oeste 0 993.2 -0.9 82
2019-06-18 05:00:00 12.5 0 Calma 5 Sudeste 0 992.9 -1.5 80
2019-06-18 04:00:00 13.4 2 Sur 6 Sur 0 993.4 -1.3 76
2019-06-18 03:00:00 14.5 2 Sudoeste 5 Sudoeste 0 994.1 -0.9 74
2019-06-18 02:00:00 16 2 Sudeste 5 Este 0 994.4 -0.2 69
2019-06-18 01:00:00 17.6 3 Sudeste 8 Este 0 994.7 1.2 64
2019-06-18 00:00:00 19.4 5 Este 9 Sur 0 995 1.3 56
2019-06-17 23:00:00 21.2 3 Noroeste 14 Sudeste 0 994.6 0.2 49
2019-06-17 22:00:00 23.8 5 Sudeste 18 Sur 0 993.5 -1.5 29
2019-06-17 21:00:00 26.5 4 Sudeste 15 Sur 0 993.7 -2.2 27
2019-06-17 20:00:00 25.9 6 Sudeste 14 Sudeste 0 994.4 -2.1 31
2019-06-17 19:00:00 25 4 Nordeste 11 Noroeste 0 995 -2.2 40
2019-06-17 18:00:00 24 4 Nordeste 10 Nordeste 0 995.9 -0.6 45
2019-06-17 17:00:00 23.2 5 Oeste 18 Oeste 0 996.5 -0.3 45
2019-06-17 16:00:00 22.2 7 Sudoeste 15 Sudoeste 0 997.2 0.7 56
2019-06-17 15:00:00 22.8 3 Oeste 14 Oeste 0 996.5 -0.5 54
2019-06-17 14:00:00 22.4 4 Oeste 18 Noroeste 0 996.8 -0.7 54
2019-06-17 13:00:00 22.2 6 Oeste 15 Oeste 0 996.5 -2.1 57
2019-06-17 12:00:00 20.2 3 Norte 11 Noroeste 0 997 -1.9 61
2019-06-17 11:00:00 17.3 4 Noroeste 10 Noroeste 0 997.5 -1.4 70
2019-06-17 10:00:00 15.1 3 Sudeste 6 Sur 0 998.6 -0.2 76
2019-06-17 09:00:00 12.8 4 Sudoeste 6 Sudoeste 0 998.9 0 84
2019-06-17 08:00:00 11 3 Oeste 5 Oeste 0 998.9 -0.1 88
2019-06-17 07:00:00 11 0 Calma 4 Sudeste 0 998.8 -0.5 87
2019-06-17 06:00:00 11.8 2 Oeste 5 Oeste 0 998.9 -0.7 83
2019-06-17 05:00:00 12.8 3 Sudeste 5 Sur 0 999 -0.6 81
2019-06-17 04:00:00 14 4 Oeste 5 Sudoeste 0 999.3 -0.2 79
2019-06-17 03:00:00 15.4 2 Este 5 Este 0 999.6 0.1 77
2019-06-17 02:00:00 17 0 Calma 9 Oeste 0 999.6 0.2 72
2019-06-17 01:00:00 18.6 2 Sudeste 10 Noroeste 0 999.5 0.8 68
2019-06-17 00:00:00 19.3 3 Oeste 6 Este 0 999.5 1.4 63
2019-06-16 23:00:00 20.7 3 Sudeste 11 Oeste 0 999.4 1.9 58
2019-06-16 22:00:00 23.1 5 Oeste 17 Oeste 0 998.7 1.5 49
2019-06-16 21:00:00 25 8 Oeste 25 Oeste 0 998.1 0.5 43
2019-06-16 20:00:00 27.2 7 Oeste 28 Oeste 0 997.5 -0.2 40
2019-06-16 19:00:00 28.5 6 Oeste 22 Oeste 0 997.2 -0.8 36
2019-06-16 18:00:00 28.5 10 Oeste 23 Oeste 0 997.6 -1 35
2019-06-16 17:00:00 28.5 9 Oeste 20 Oeste 0 997.7 -2 33
2019-06-16 16:00:00 27.4 8 Sudoeste 19 Oeste 0 998 -2.4 35
2019-06-16 15:00:00 25.7 4 Norte 14 Norte 0 998.6 -2.7 38
2019-06-16 14:00:00 23.5 4 Norte 12 Norte 0 999.7 -2.3 44
2019-06-16 13:00:00 21.3 5 Oeste 12 Oeste 0 1000.4 -2.2 49
2019-06-16 12:00:00 18.2 5 Sudoeste 10 Noroeste 0 1001.3 -1.3 56
2019-06-16 11:00:00 14.6 3 Este 6 Sudoeste 0 1002 -0.4 69
2019-06-16 10:00:00 11.5 2 Sudeste 5 Sudeste 0 1002.6 0.4 80
2019-06-16 09:00:00 8.6 2 Sur 4 Sur 0 1002.6 0.3 87
2019-06-16 08:00:00 6.7 0 Calma 4 Sudoeste 0 1002.4 -0.2 90
2019-06-16 07:00:00 6.8 2 Oeste 5 Sudeste 0 1002.2 -0.6 89
2019-06-16 06:00:00 7.3 3 Sudoeste 5 Oeste 0 1002.3 -0.8 88
2019-06-16 05:00:00 8.2 3 Sur 6 Sur 0 1002.6 -1 86
2019-06-16 04:00:00 9.1 2 Sur 5 Sur 0 1002.8 -0.8 85
2019-06-16 03:00:00 10.2 2 Sur 6 Oeste 0 1003.1 -0.4 82
2019-06-16 02:00:00 11.4 0 Calma 4 Sudoeste 0 1003.6 0.6 79
2019-06-16 01:00:00 12.8 2 Oeste 6 Oeste 0 1003.6 1.3 73
2019-06-16 00:00:00 14.7 3 Oeste 8 Este 0 1003.5 1.2 67
2019-06-15 23:00:00 16.9 3 Sudeste 7 Este 0 1003 0.7 60
2019-06-15 22:00:00 18.6 4 Sudoeste 12 Oeste 0 1002.3 0.1 53
2019-06-15 21:00:00 20.3 4 Oeste 13 Oeste 0 1002.3 -0.3 48
2019-06-15 20:00:00 20.4 6 Oeste 22 Oeste 0 1002.3 -0.6 46
2019-06-15 19:00:00 21.3 8 Oeste 17 Oeste 0 1002.2 -0.8 44
2019-06-15 18:00:00 20.8 4 Oeste 18 Noroeste 0 1002.6 -0.6 45
2019-06-15 17:00:00 21.3 7 Noroeste 24 Oeste 0 1002.9 -0.5 45
2019-06-15 16:00:00 20.3 4 Sur 13 Sudeste 0 1003 -0.4 44
2019-06-15 15:00:00 19.7 6 Sudeste 15 Sur 0 1003.2 -0.2 44
2019-06-15 14:00:00 19.8 4 Este 9 Sur 0 1003.4 0.1 44
2019-06-15 13:00:00 18.5 3 Sudeste 9 Sudoeste 0 1003.4 0.2 48
2019-06-15 12:00:00 17.6 5 Sur 10 Sudeste 0 1003.4 0.5 54
2019-06-15 11:00:00 16.7 3 Sudeste 10 Oeste 0 1003.3 0.7 62
2019-06-15 10:00:00 15.8 3 Nordeste 7 Noroeste 0 1003.2 1.3 66
2019-06-15 09:00:00 14 5 Nordeste 9 Este 0 1002.9 1.4 77
2019-06-15 08:00:00 12.7 3 Sur 8 Sudeste 0 1002.6 1.2 83
2019-06-15 07:00:00 12.9 3 Sudeste 6 Sudeste 0 1001.9 0.7 84
2019-06-15 06:00:00 13.2 4 Sudeste 10 Sudeste 0 1001.5 0.2 77
2019-06-15 05:00:00 13.3 3 Sudoeste 7 Sudoeste 0 1001.4 0.1 76
2019-06-15 04:00:00 13.8 0 Calma 7 Sudeste 0 1001.2 0 74
2019-06-15 03:00:00 14.1 3 Sudeste 8 Sudeste 0 1001.3 0.6 74
2019-06-15 02:00:00 14.4 4 Sudeste 8 Sudeste 0 1001.3 1.2 72
2019-06-15 01:00:00 14.4 5 Sudeste 9 Sudeste 0 1001.2 2 68
2019-06-15 00:00:00 14.6 2 Sudeste 6 Sudeste 0 1000.7 2.2 62
2019-06-14 23:00:00 15.1 4 Sudeste 10 Sudoeste 0 1000.1 2.3 60
2019-06-14 22:00:00 16.5 4 Oeste 19 Sudoeste 0 999.2 1.9 56
2019-06-14 21:00:00 17.7 12 Sudoeste 23 Sudoeste 0 998.5 1.5 51
2019-06-14 20:00:00 18.5 10 Oeste 25 Sur 0 997.8 1.3 46
2019-06-14 19:00:00 20.3 13 Oeste 26 Sudoeste 0 997.3 1 42
2019-06-14 18:00:00 20.7 12 Sudoeste 25 Sudoeste 0 997 0.9 41
2019-06-14 17:00:00 20.5 12 Sudoeste 28 Oeste 0 996.5 0.3 43
2019-06-14 16:00:00 20.3 4 Oeste 22 Oeste 0 996.3 0.5 43
2019-06-14 15:00:00 19.5 6 Noroeste 23 Noroeste 0 996.1 0.2 43
2019-06-14 14:00:00 19.8 8 Oeste 27 Sudoeste 0 996.2 -0.1 46
2019-06-14 13:00:00 20.2 8 Sudoeste 14 Oeste 0 995.8 -0.6 43
2019-06-14 12:00:00 17.9 4 Nordeste 9 Norte 0 995.9 -0.4 53
2019-06-14 11:00:00 15.5 5 Sudeste 9 Sur 0 996.3 0.2 63
2019-06-14 10:00:00 12.1 3 Sur 5 Este 0 996.4 0.3 75
2019-06-14 09:00:00 9.3 0 Calma 5 Sur 0 996.3 0.7 84
2019-06-14 08:00:00 7.3 2 Sudoeste 5 Sur 0 996.1 0.9 86
2019-06-14 07:00:00 7.4 0 Calma 5 Sudoeste 0 996.1 0.8 85
2019-06-14 06:00:00 8.4 2 Sur 5 Sur 0 995.6 0.4 84
2019-06-14 05:00:00 9.5 3 Oeste 5 Oeste 0 995.2 -0.3 82
2019-06-14 04:00:00 11 3 Oeste 5 Oeste 0 995.3 -0.5 78
2019-06-14 03:00:00 12.4 4 Oeste 8 Oeste 0 995.2 -0.5 74
2019-06-14 02:00:00 13.1 0 Calma 8 Noroeste 0 995.5 0.2 71
2019-06-14 01:00:00 13.9 3 Oeste 7 Noroeste 0 995.8 1.1 66
2019-06-14 00:00:00 14.5 3 Oeste 7 Oeste 0 995.7 1.5 65
2019-06-13 23:00:00 15.1 3 Oeste 12 Oeste 0 995.3 1.6 62
2019-06-13 22:00:00 16.6 4 Oeste 13 Noroeste 0 994.7 1.1 57
2019-06-13 21:00:00 18.8 6 Oeste 17 Oeste 0 994.2 0.7 48
2019-06-13 20:00:00 19.4 5 Sudoeste 23 Oeste 0 993.7 0 45
2019-06-13 19:00:00 20.5 5 Nordeste 16 Nordeste 0 993.6 0 42
2019-06-13 18:00:00 21.7 6 Oeste 20 Oeste 0 993.5 -0.3 36
2019-06-13 17:00:00 21 9 Oeste 21 Noroeste 0 993.7 -0.4 37
2019-06-13 16:00:00 21.6 9 Oeste 21 Oeste 0 993.6 -0.4 38
2019-06-13 15:00:00 19.5 5 Oeste 17 Oeste 0 993.8 -0.6 43
2019-06-13 14:00:00 18.1 5 Oeste 19 Oeste 0 994.1 -0.7 47
2019-06-13 13:00:00 18.4 5 Noroeste 12 Sudeste 0 994 -1.1 42
2019-06-13 12:00:00 16.2 6 Sur 12 Nordeste 0 994.4 -0.6 55
2019-06-13 11:00:00 13.9 4 Norte 10 Noroeste 0 994.8 -0.1 73
2019-06-13 10:00:00 11 2 Sudoeste 5 Oeste 0 995.1 0.3 76
2019-06-13 09:00:00 9.4 2 Sur 6 Nordeste 0 995 0.4 82
2019-06-13 08:00:00 7.1 0 Calma 5 Sur 0 994.9 0.4 86
2019-06-13 07:00:00 7.2 3 Oeste 7 Sur 0 994.8 0.1 86
2019-06-13 06:00:00 7.9 3 Sur 6 Sur 0 994.6 -0.1 84
2019-06-13 05:00:00 8.5 0 Calma 5 Sudeste 0 994.5 -0.4 84
2019-06-13 04:00:00 9.1 2 Sur 6 Oeste 0 994.7 -0.6 82
2019-06-13 03:00:00 10.6 2 Nordeste 5 Oeste 0 994.7 -0.9 77
2019-06-13 02:00:00 12.2 3 Sudoeste 8 Oeste 0 994.9 -0.6 71
2019-06-13 01:00:00 13.6 2 Este 12 Este 0 995.3 0.3 65
2019-06-13 00:00:00 14.2 2 Nordeste 8 Nordeste 0 995.6 0.8 62
2019-06-12 23:00:00 14.9 3 Nordeste 18 Oeste 0 995.5 0.8 61
2019-06-12 22:00:00 15.9 8 Oeste 19 Oeste 0 995 0.2 57
2019-06-12 21:00:00 18 7 Oeste 19 Oeste 0 994.8 -0.6 49
2019-06-12 20:00:00 19 4 Norte 17 Norte 0 994.7 -1.2 42
2019-06-12 19:00:00 19.9 6 Oeste 15 Oeste 0 994.8 -1.7 36
2019-06-12 18:00:00 20.6 4 Oeste 16 Oeste 0 995.4 -1.5 37
2019-06-12 17:00:00 20.4 6 Oeste 15 Noroeste 0 995.9 -1.7 38
2019-06-12 16:00:00 18.9 6 Noroeste 16 Norte 0 996.5 -1.8 43
2019-06-12 15:00:00 18.8 6 Nordeste 14 Norte 0 996.9 -1.7 40
2019-06-12 14:00:00 17.7 3 Nordeste 14 Nordeste 0 997.6 -1.1 46
2019-06-12 13:00:00 17.2 4 Nordeste 11 Norte 0 998.3 -0.9 44
2019-06-12 12:00:00 16.1 5 Este 12 Oeste 0 998.6 -1.2 52
2019-06-12 11:00:00 14.4 4 Sur 10 Sudoeste 0 998.7 -1.2 59
2019-06-12 10:00:00 11.4 2 Sudeste 6 Nordeste 0 999.2 -0.7 74
2019-06-12 09:00:00 8.4 3 Sur 5 Sudoeste 0 999.8 0 83
2019-06-12 08:00:00 6.6 0 Calma 7 Sur 0 999.9 0 86
2019-06-12 07:00:00 6.5 3 Sudoeste 7 Sudeste 0 999.9 -0.4 86
2019-06-12 06:00:00 7.6 0 Calma 5 Sudeste 0 999.8 -0.9 83
2019-06-12 05:00:00 8.7 3 Sudoeste 8 Sudeste 0 999.9 -1.1 79
2019-06-12 04:00:00 10.5 3 Sudeste 7 Noroeste 0 1000.3 -1.1 75
2019-06-12 03:00:00 11.5 4 Oeste 6 Noroeste 0 1000.7 -0.6 72
2019-06-12 02:00:00 11.5 4 Oeste 8 Oeste 0 1001 -0.1 70
2019-06-12 01:00:00 12.1 4 Oeste 10 Noroeste 0 1001.4 1 66
2019-06-12 00:00:00 13.1 3 Sudoeste 9 Nordeste 0 1001.3 1.1 62
2019-06-11 23:00:00 14.7 3 Norte 13 Nordeste 0 1001.1 0.9 57
2019-06-11 22:00:00 16.6 4 Norte 21 Norte 0 1000.4 0.3 50
2019-06-11 21:00:00 19.3 6 Norte 21 Nordeste 0 1000.2 0 41
2019-06-11 20:00:00 18.5 6 Norte 20 Nordeste 0 1000.2 -0.1 43
2019-06-11 19:00:00 20.8 6 Nordeste 26 Este 0 1000.1 -0.3 40
2019-06-11 18:00:00 21.2 6 Noroeste 25 Nordeste 0 1000.2 -0.5 35
2019-06-11 17:00:00 19.9 6 Norte 24 Noroeste 0 1000.3 -0.9 41
2019-06-11 16:00:00 19.8 6 Nordeste 21 Noroeste 0 1000.4 -0.9 35
2019-06-11 15:00:00 19.5 7 Norte 19 Nordeste 0 1000.7 -0.5 37
2019-06-11 14:00:00 19.3 5 Norte 24 Noroeste 0 1001.2 0 36
2019-06-11 13:00:00 17.6 8 Nordeste 22 Este 0 1001.3 0 43
2019-06-11 12:00:00 17 5 Nordeste 19 Nordeste 0 1001.2 0.1 46
2019-06-11 11:00:00 15.7 4 Norte 17 Norte 0 1001.2 0.5 52
2019-06-11 10:00:00 14.3 4 Norte 17 Este 0 1001.3 1.2 64
2019-06-11 09:00:00 12.7 4 Noroeste 15 Nordeste 0 1001.1 1.3 68
2019-06-11 08:00:00 12.4 3 Nordeste 11 Norte 0 1000.7 0.8 72
2019-06-11 07:00:00 12.6 3 Nordeste 7 Noroeste 0 1000.1 -0.1 69
2019-06-11 06:00:00 12.8 3 Norte 11 Norte 0 999.8 -0.5 67
2019-06-11 05:00:00 13.5 3 Noroeste 13 Noroeste 0 999.9 -0.8 65
2019-06-11 04:00:00 13.6 3 Norte 10 Norte 0 1000.2 -0.6 65
2019-06-11 03:00:00 13.9 3 Norte 12 Oeste 0 1000.3 -0.5 66
2019-06-11 02:00:00 14.2 2 Norte 8 Norte 0 1000.7 0.4 64
2019-06-11 01:00:00 14.6 3 Nordeste 13 Noroeste 0 1000.8 1 59
2019-06-11 00:00:00 15.5 4 Norte 17 Este 0 1000.8 1.2 57
2019-06-10 23:00:00 16.6 4 Oeste 17 Noroeste 0 1000.3 1 59
2019-06-10 22:00:00 17.6 4 Oeste 15 Norte 0 999.8 0.3 54
2019-06-10 21:00:00 18.9 4 Oeste 16 Noroeste 0 999.6 -0.1 47
2019-06-10 20:00:00 20 4 Sudoeste 21 Noroeste 0 999.3 -0.8 42
2019-06-10 19:00:00 20.8 7 Noroeste 22 Oeste 0 999.5 -1.2 38
2019-06-10 18:00:00 21.5 4 Norte 16 Norte 0 999.7 -1.5 39
2019-06-10 17:00:00 21.6 3 Sudeste 14 Norte 0 1000.1 -2.2 39
2019-06-10 16:00:00 21.1 5 Nordeste 16 Norte 0 1000.7 -2.1 38
2019-06-10 15:00:00 21.4 6 Oeste 18 Sudoeste 0 1001.2 -2.2 41
2019-06-10 14:00:00 20 6 Oeste 12 Sudoeste 0 1002.3 -1.3 45
2019-06-10 13:00:00 17.7 4 Noroeste 14 Este 0 1002.8 -1.2 53
2019-06-10 12:00:00 15.4 5 Nordeste 14 Oeste 0 1003.4 -0.5 60
2019-06-10 11:00:00 14.1 5 Nordeste 16 Este 0 1003.6 -0.2 66
2019-06-10 10:00:00 11.6 2 Sur 5 Sur 0 1004 0.5 81
2019-06-10 09:00:00 9.9 0 Calma 5 Sudoeste 0 1003.9 0.8 86
2019-06-10 08:00:00 7.8 0 Calma 5 Sudoeste 0 1003.8 0.6 90
2019-06-10 07:00:00 7.4 2 Sudoeste 4 Sudeste 0 1003.5 0.1 89
2019-06-10 06:00:00 8 2 Sur 7 Sur 0 1003.1 -0.3 87
2019-06-10 05:00:00 8.9 3 Oeste 5 Oeste 0 1003.2 -0.5 87
2019-06-10 04:00:00 10.1 3 Oeste 6 Oeste 0 1003.4 -0.3 84
2019-06-10 03:00:00 11.4 4 Oeste 8 Oeste 0 1003.4 -0.2 80
2019-06-10 02:00:00 13.2 0 Calma 7 Este 0 1003.7 0.8 76
2019-06-10 01:00:00 14.7 2 Norte 8 Norte 0 1003.7 1.5 71
2019-06-10 00:00:00 15.6 3 Nordeste 10 Este 0 1003.6 1.9 67
2019-06-09 23:00:00 16.8 3 Norte 15 Norte 0 1002.9 1.2 63
2019-06-09 22:00:00 18.3 3 Este 15 Oeste 0 1002.2 1 55
2019-06-09 21:00:00 19.4 7 Oeste 20 Norte 0 1001.7 0.9 51
2019-06-09 20:00:00 21.3 5 Oeste 25 Oeste 0 1001.7 1 45
2019-06-09 19:00:00 20.1 7 Oeste 23 Oeste 0 1001.2 0.5 45
2019-06-09 18:00:00 21.1 11 Oeste 24 Oeste 0 1000.8 -0.3 43
2019-06-09 17:00:00 21.3 5 Oeste 19 Oeste 0 1000.7 -0.7 43
2019-06-09 16:00:00 21.5 4 Nordeste 16 Noroeste 0 1000.7 -1.3 43
2019-06-09 15:00:00 20.9 6 Sudoeste 21 Oeste 0 1001.1 -1.3 49
2019-06-09 14:00:00 20.3 4 Nordeste 14 Este 0 1001.4 -1.2 44
2019-06-09 13:00:00 18.8 6 Oeste 13 Sudoeste 0 1002 -0.6 49
2019-06-09 12:00:00 16.6 4 Nordeste 13 Oeste 0 1002.4 0.1 58
2019-06-09 11:00:00 14.2 4 Oeste 8 Oeste 0 1002.6 0.4 73
2019-06-09 10:00:00 11.4 3 Oeste 5 Noroeste 0 1002.6 0.7 79
2019-06-09 09:00:00 8.8 2 Sur 4 Sudeste 0 1002.3 0.5 89
2019-06-09 08:00:00 7.3 3 Sudeste 5 Sudeste 0 1002.2 0.3 89
2019-06-09 07:00:00 7.4 3 Sur 8 Sur 0 1001.9 -0.1 88
2019-06-09 06:00:00 8.3 2 Sudoeste 6 Sur 0 1001.8 0 87
2019-06-09 05:00:00 9.1 3 Sur 7 Sur 0 1001.9 -0.2 85
2019-06-09 04:00:00 10.1 2 Oeste 6 Noroeste 0 1002 -0.1 82
2019-06-09 03:00:00 11.6 3 Oeste 9 Oeste 0 1001.8 -0.5 76
2019-06-09 02:00:00 12.8 2 Norte 10 Noroeste 0 1002.1 -0.3 71
2019-06-09 01:00:00 13.8 3 Noroeste 11 Noroeste 0 1002.1 0.3 69
2019-06-09 00:00:00 14.8 3 Norte 12 Oeste 0 1002.3 1 65
2019-06-08 23:00:00 15.8 3 Nordeste 10 Norte 0 1002.4 1.1 63
2019-06-08 22:00:00 17.3 3 Nordeste 9 Este 0 1001.8 0.5 56
2019-06-08 21:00:00 18.9 5 Nordeste 12 Este 0 1001.3 0.1 45
2019-06-08 20:00:00 19.6 3 Nordeste 14 Norte 0 1001.3 -0.4 44
2019-06-08 19:00:00 20 4 Norte 22 Oeste 0 1001.3 -1 42
2019-06-08 18:00:00 19.9 6 Oeste 15 Oeste 0 1001.2 -1.4 37
2019-06-08 17:00:00 20.9 6 Sudoeste 15 Oeste 0 1001.7 -1.6 41
2019-06-08 16:00:00 21.3 5 Sudoeste 19 Oeste 0 1002.3 -1.5 38
2019-06-08 15:00:00 20.3 5 Nordeste 13 Nordeste 0 1002.6 -1.9 43
2019-06-08 14:00:00 18.9 4 Oeste 12 Sur 0 1003.3 -2.1 44
2019-06-08 13:00:00 17.4 5 Sudoeste 10 Sudoeste 0 1003.8 -2 52
2019-06-08 12:00:00 13.7 3 Sur 8 Sur 0 1004.5 -1.6 64
2019-06-08 11:00:00 10 4 Sur 6 Sudoeste 0 1005.4 -0.7 80
2019-06-08 10:00:00 8.1 3 Sudeste 8 Sudoeste 0 1005.8 -0.2 87
2019-06-08 09:00:00 6.8 3 Sur 5 Sur 0 1006.1 -0.1 90
2019-06-08 08:00:00 5.2 0 Calma 5 Sudoeste 0 1006.1 -0.1 91
2019-06-08 07:00:00 4.8 2 Sur 4 Oeste 0 1006 -0.2 91
2019-06-08 06:00:00 4.9 0 Calma 5 Sudeste 0 1006.2 0.1 90
2019-06-08 05:00:00 5.6 3 Oeste 5 Oeste 0 1006.2 0 89
2019-06-08 04:00:00 6.4 2 Sudoeste 5 Oeste 0 1006.2 0 88
2019-06-08 03:00:00 7.3 2 Sur 6 Oeste 0 1006.1 0.2 85
2019-06-08 02:00:00 8.4 2 Sudoeste 7 Sur 0 1006.2 0.9 82
2019-06-08 01:00:00 9.8 3 Sur 8 Oeste 0 1006.2 1.9 76
2019-06-08 00:00:00 11.7 3 Oeste 10 Sur 0 1005.9 2.2 70
2019-06-07 23:00:00 13.2 3 Sur 13 Oeste 0 1005.3 2.2 63
2019-06-07 22:00:00 15.2 6 Oeste 17 Oeste 0 1004.3 1.4 52
2019-06-07 21:00:00 17.5 8 Oeste 19 Oeste 0 1003.7 1.3 42
2019-06-07 20:00:00 18 7 Oeste 25 Oeste 0 1003.1 1.2 45
2019-06-07 19:00:00 18.9 10 Oeste 28 Noroeste 0 1002.9 1 40
2019-06-07 18:00:00 18.1 9 Oeste 27 Oeste 0 1002.4 0.8 46
2019-06-07 17:00:00 18.4 6 Oeste 19 Oeste 0 1001.9 0.4 50
2019-06-07 16:00:00 16.3 7 Noroeste 22 Noroeste 0 1001.9 1.7 61
2019-06-07 15:00:00 16.1 4 Sudoeste 10 Sur 0 1001.6 1.7 62
2019-06-07 14:00:00 13.7 3 Sudoeste 24 Oeste 1 1001.5 1.9 77
2019-06-07 13:00:00 17 8 Sur 19 Sur 0 1000.2 1.1 59
2019-06-07 12:00:00 14.9 7 Sur 16 Sudoeste 0 999.9 1.6 66
2019-06-07 11:00:00 13.3 4 Este 12 Nordeste 0 999.6 2.2 72
2019-06-07 10:00:00 11.3 4 Sudeste 10 Sudeste 0.2 999.1 2.3 89
2019-06-07 09:00:00 10.3 0 Calma 7 Nordeste 0.2 998.3 2.5 88
2019-06-07 08:00:00 9 0 Calma 13 Sur 0.4 997.4 2.2 90
2019-06-07 07:00:00 9.1 4 Sudeste 10 Sudeste 0.6 996.8 2.8 93
2019-06-07 06:00:00 9.4 5 Sudeste 9 Sur 1.8 995.8 2.3 91
2019-06-07 05:00:00 10 2 Sur 13 Sudeste 0.2 995.2 2.5 88
2019-06-07 04:00:00 9.9 3 Nordeste 11 Sudeste 0.4 994 2.1 87
2019-06-07 03:00:00 10 2 Nordeste 6 Sur 0 993.5 2.5 87
2019-06-07 02:00:00 10.3 3 Sudeste 12 Sudoeste 0.6 992.7 2.4 85
2019-06-07 01:00:00 10.7 4 Sudoeste 13 Sudoeste 0.4 991.9 2.6 87
2019-06-07 00:00:00 10.8 3 Sudoeste 12 Sur 0.2 991 2.5 87
2019-06-06 23:00:00 11.5 4 Oeste 18 Oeste 1.4 990.3 2.7 86
2019-06-06 22:00:00 12.2 6 Sudoeste 23 Oeste 0 989.3 2.5 80
2019-06-06 21:00:00 12.9 10 Sudoeste 29 Sudoeste 0 988.5 2.4 77
2019-06-06 20:00:00 14.3 16 Oeste 37 Sudoeste 0 987.6 1.9 67
2019-06-06 19:00:00 15.1 12 Sudoeste 28 Oeste 0 986.8 2.1 72
2019-06-06 18:00:00 14.9 10 Oeste 27 Sudoeste 1.8 986.1 -0.9 79
2019-06-06 17:00:00 14.7 9 Sudoeste 22 Sur 2.8 985.7 -1.5 83
2019-06-06 16:00:00 14.5 12 Sudeste 30 Sudeste 0.6 984.7 -3.4 78
2019-06-06 15:00:00 14.2 12 Sudeste 29 Sudeste 0.4 987 -2.3 74
2019-06-06 14:00:00 14.8 11 Sur 29 Sur 0.4 987.2 -3.1 68
2019-06-06 13:00:00 17.2 17 Sur 46 Sur 0 988.1 -3.6 51
2019-06-06 12:00:00 15.5 14 Sudeste 39 Sur 0 989.3 -3.4 56
2019-06-06 11:00:00 15.4 14 Sudeste 27 Sudeste 0 990.3 -3.3 57
2019-06-06 10:00:00 14.1 10 Sudeste 28 Sur 0 991.7 -2.6 60
2019-06-06 09:00:00 13.2 8 Sudeste 18 Sudeste 0 992.7 -2.4 64
2019-06-06 08:00:00 12.1 8 Sudeste 17 Sudeste 0 993.6 -2.3 66
2019-06-06 07:00:00 10.9 3 Oeste 8 Noroeste 0 994.3 -2.2 73
2019-06-06 06:00:00 10.7 3 Oeste 6 Oeste 0 995.1 -2.2 75
2019-06-06 05:00:00 10.6 3 Sudeste 5 Sudeste 0 995.9 -1.7 75
2019-06-06 04:00:00 10.7 3 Sudoeste 6 Sudeste 0 996.5 -1.6 75
2019-06-06 03:00:00 11.1 2 Sur 6 Sur 0 997.3 -1.1 72
2019-06-06 02:00:00 11.6 3 Sudoeste 9 Sur 0 997.6 -0.5 70
2019-06-06 01:00:00 11.8 4 Sur 10 Sudeste 0 998.1 0.2 68
2019-06-06 00:00:00 12.2 2 Sudeste 14 Sur 0 998.4 0.7 64
2019-06-05 23:00:00 13.3 5 Sur 14 Sudoeste 0 998.1 0.6 56
2019-06-05 22:00:00 14.7 7 Sudoeste 18 Oeste 0 997.9 0.5 51
2019-06-05 21:00:00 15.9 7 Oeste 20 Oeste 0 997.7 0.3 50
2019-06-05 20:00:00 17.6 11 Oeste 26 Oeste 0 997.5 -0.1 44
2019-06-05 19:00:00 18.8 14 Oeste 31 Oeste 0 997.4 -0.5 38
2019-06-05 18:00:00 19.5 13 Oeste 31 Sudoeste 0 997.4 -0.1 36
2019-06-05 17:00:00 17.9 12 Oeste 30 Oeste 0 997.6 -0.6 43
2019-06-05 16:00:00 17.9 13 Oeste 32 Oeste 0 997.9 -0.5 41
2019-06-05 15:00:00 19 10 Sur 21 Sudoeste 0 997.5 -0.3 46
2019-06-05 14:00:00 16.9 11 Oeste 23 Oeste 0 998.2 0.2 50
2019-06-05 13:00:00 15.7 8 Oeste 26 Oeste 0 998.4 0.6 59
2019-06-05 12:00:00 16.1 6 Oeste 18 Noroeste 0 997.8 0.4 51
2019-06-05 11:00:00 14.9 7 Oeste 15 Sudoeste 0 998 1 61
2019-06-05 10:00:00 13.2 3 Sur 10 Sudeste 0 997.8 1.2 72
2019-06-05 09:00:00 12.1 2 Noroeste 5 Norte 0 997.4 1 78
2019-06-05 08:00:00 10.8 3 Oeste 6 Oeste 0 997 0.8 83
2019-06-05 07:00:00 10.6 2 Oeste 6 Oeste 0 996.6 0.4 82
2019-06-05 06:00:00 10.3 0 Calma 6 Sudoeste 0 996.4 0.2 83
2019-06-05 05:00:00 10.9 3 Este 5 Este 0 996.2 -0.1 81
2019-06-05 04:00:00 11.3 0 Calma 6 Sudoeste 0 996.2 -0.1 78
2019-06-05 03:00:00 11.9 3 Oeste 7 Oeste 0 996.2 -0.2 75
2019-06-05 02:00:00 12.3 3 Sudoeste 9 Oeste 0 996.3 0.3 75
2019-06-05 01:00:00 12.5 0 Calma 7 Sudoeste 0 996.3 0.9 74
2019-06-05 00:00:00 13.1 2 Sur 9 Sudoeste 0 996.4 1.3 72
2019-06-04 23:00:00 14 3 Sudoeste 14 Sudoeste 0 996 1 69
2019-06-04 22:00:00 15.3 5 Sudoeste 24 Noroeste 0 995.4 0.8 59
2019-06-04 21:00:00 17.1 8 Oeste 17 Sudoeste 0 995.1 0.7 56
2019-06-04 20:00:00 17.8 8 Oeste 27 Oeste 0 995 0.8 53
2019-06-04 19:00:00 19.2 8 Oeste 32 Noroeste 0 994.6 0.4 48
2019-06-04 18:00:00 20.5 12 Oeste 28 Oeste 0 994.4 0.1 41
2019-06-04 17:00:00 21.4 12 Oeste 32 Oeste 0 994.2 -0.4 38
2019-06-04 16:00:00 21.4 10 Sudoeste 27 Sudoeste 0 994.2 -0.5 40
2019-06-04 15:00:00 21.3 12 Sur 30 Sur 0 994.3 -0.5 37
2019-06-04 14:00:00 20.2 5 Sudoeste 21 Oeste 0 994.6 0.3 42
2019-06-04 13:00:00 19.1 8 Sur 24 Oeste 0 994.7 1.1 48
2019-06-04 12:00:00 17.3 10 Oeste 23 Oeste 0 994.8 2.1 66
2019-06-04 11:00:00 16.2 6 Oeste 18 Oeste 0.2 994.3 1.2 78
2019-06-04 10:00:00 16 4 Sudoeste 14 Sudoeste 0 993.6 0.4 83
2019-06-04 09:00:00 16.7 4 Sur 16 Sudeste 0 992.7 -0.8 69
2019-06-04 08:00:00 15.8 4 Sudeste 8 Sudeste 0 993.1 -0.6 71
2019-06-04 07:00:00 15.7 2 Sudoeste 10 Sudeste 0 993.2 -1 71
2019-06-04 06:00:00 15 4 Sudeste 10 Sudeste 0 993.5 -1.4 68
2019-06-04 05:00:00 15.2 5 Sudeste 10 Sudoeste 0 993.7 -2.5 67
2019-06-04 04:00:00 15.3 4 Sudoeste 17 Sudeste 0 994.2 -2.2 70
2019-06-04 03:00:00 15.9 7 Sudeste 13 Sur 0 994.9 -1.7 67
2019-06-04 02:00:00 15.9 4 Sudeste 12 Sur 0 996.2 -0.3 68
2019-06-04 01:00:00 16.6 3 Sur 15 Sudoeste 0 996.4 0.1 69
2019-06-04 00:00:00 17.3 6 Sudoeste 18 Sudoeste 0 996.6 0.5 68
2019-06-03 23:00:00 18.1 8 Sudoeste 16 Sur 0 996.5 0.5 68
2019-06-03 22:00:00 19.5 9 Sudoeste 19 Oeste 0 996.3 -0.2 63
2019-06-03 21:00:00 22 11 Sudoeste 22 Sur 0 996.1 -0.6 54
2019-06-03 20:00:00 23.4 10 Oeste 27 Sudoeste 0 996 -0.6 51
2019-06-03 19:00:00 23.5 12 Sudoeste 26 Oeste 0 996.5 -0.5 54
2019-06-03 18:00:00 24.5 13 Oeste 30 Sudoeste 0 996.7 -0.8 55
2019-06-03 17:00:00 25.1 13 Sudoeste 28 Sudoeste 0 996.6 -1.4 52
2019-06-03 16:00:00 27.3 11 Sudoeste 29 Oeste 0 997 -1.6 47
2019-06-03 15:00:00 25.4 10 Oeste 24 Oeste 0 997.5 -1.4 51
2019-06-03 14:00:00 23.6 6 Oeste 17 Oeste 0 998 -1.3 54
2019-06-03 13:00:00 22.8 6 Sudoeste 16 Oeste 0 998.6 -0.9 58
2019-06-03 12:00:00 21.8 4 Sur 8 Oeste 0 998.9 -0.5 56
2019-06-03 11:00:00 20 2 Noroeste 5 Sur 0 999.3 -0.1 58
2019-06-03 10:00:00 18.4 0 Calma 6 Oeste 0 999.5 0.2 63
2019-06-03 09:00:00 17.7 2 Sudoeste 5 Sudeste 0 999.4 0.4 67
2019-06-03 08:00:00 16.7 3 Sur 5 Sudeste 0 999.4 0.2 70
2019-06-03 07:00:00 16.5 0 Calma 5 Sudoeste 0 999.3 0.1 69
2019-06-03 06:00:00 16.4 2 Sudoeste 6 Sudoeste 0 999 -0.5 67
2019-06-03 05:00:00 16.6 3 Sudeste 5 Sudoeste 0 999.2 -0.7 66
2019-06-03 04:00:00 17 3 Sudoeste 6 Sudeste 0 999.2 -0.9 63
2019-06-03 03:00:00 17.7 4 Sur 8 Sudeste 0 999.5 -0.2 58
2019-06-03 02:00:00 18.8 3 Sudeste 11 Sudeste 0 999.9 0.8 56
2019-06-03 01:00:00 19.7 6 Sur 11 Sur 0 1000.1 1.6 53
2019-06-03 00:00:00 21.2 3 Sudoeste 14 Noroeste 0 999.7 1.6 45
2019-06-02 23:00:00 22.1 9 Sur 17 Sur 0 999.1 1.1 45
2019-06-02 22:00:00 23.5 7 Sudoeste 15 Sur 0 998.5 0.4 47
2019-06-02 21:00:00 25.3 8 Sudoeste 23 Oeste 0 998.1 -0.2 44
2019-06-02 20:00:00 26.7 10 Oeste 20 Oeste 0 998 -0.3 32
2019-06-02 19:00:00 29.2 10 Sudoeste 23 Oeste 0 998.1 -0.3 27
2019-06-02 18:00:00 29.6 9 Oeste 22 Oeste 0 998.3 -0.6 26
2019-06-02 17:00:00 28.5 10 Oeste 20 Oeste 0 998.3 -0.9 30
2019-06-02 16:00:00 28.5 9 Oeste 27 Sur 0 998.4 -1.6 29
2019-06-02 15:00:00 28.7 10 Oeste 22 Oeste 0 998.9 -1.2 26
2019-06-02 14:00:00 27.2 4 Noroeste 10 Noroeste 0 999.2 -1 34
2019-06-02 13:00:00 24.7 4 Oeste 12 Noroeste 0 1000 -0.5 36
2019-06-02 12:00:00 22.2 3 Noroeste 9 Oeste 0 1000.1 -0.3 45
2019-06-02 11:00:00 19.6 4 Oeste 10 Oeste 0 1000.2 -0.2 50
2019-06-02 10:00:00 15.9 3 Sur 7 Sur 0 1000.5 0.4 60
2019-06-02 09:00:00 13.2 3 Oeste 5 Oeste 0 1000.4 0.7 71
2019-06-02 08:00:00 11.2 3 Oeste 5 Oeste 0 1000.4 0.4 77
2019-06-02 07:00:00 10.7 3 Oeste 5 Oeste 0 1000.1 -0.2 77
2019-06-02 06:00:00 11.5 3 Sudoeste 5 Oeste 0 999.7 -0.8 74
2019-06-02 05:00:00 12.5 3 Sudeste 6 Oeste 0 1000 -0.7 70
2019-06-02 04:00:00 13.7 3 Sudoeste 5 Oeste 0 1000.3 -0.3 66
2019-06-02 03:00:00 15 3 Sur 6 Oeste 0 1000.5 0 61
2019-06-02 02:00:00 16.4 0 Calma 6 Oeste 0 1000.7 0.7 57
2019-06-02 01:00:00 17.9 3 Oeste 5 Sur 0 1000.6 1.3 52
2019-06-02 00:00:00 20.3 4 Oeste 8 Oeste 0 1000.5 1.8 44
2019-06-01 23:00:00 23.8 2 Nordeste 7 Noroeste 0 1000 1.9 34
2019-06-01 22:00:00 27.4 5 Oeste 15 Oeste 0 999.3 1.3 24
2019-06-01 21:00:00 30.9 4 Oeste 18 Noroeste 0 998.7 0.7 20
2019-06-01 20:00:00 32.3 9 Oeste 23 Oeste 0 998.1 -0.2 19
2019-06-01 19:00:00 33.2 10 Oeste 27 Oeste 0 998 -0.7 18
2019-06-01 18:00:00 34.2 12 Oeste 30 Oeste 0 998 -1 17
2019-06-01 17:00:00 34.7 13 Sudoeste 27 Sudoeste 0 998.3 -1.2 17
2019-06-01 16:00:00 34.2 10 Oeste 25 Oeste 0 998.7 -1.4 18
2019-06-01 15:00:00 33.5 11 Oeste 28 Oeste 0 999 -1.5 20
2019-06-01 14:00:00 31.7 4 Nordeste 10 Noroeste 0 999.5 -1.5 34
2019-06-01 13:00:00 29.3 5 Oeste 9 Oeste 0 1000.1 -1.1 35
2019-06-01 12:00:00 25.4 4 Noroeste 8 Oeste 0 1000.5 -0.8 47
2019-06-01 11:00:00 22.1 3 Sudoeste 7 Sur 0 1001 -0.4 57
2019-06-01 10:00:00 18.5 2 Sudeste 5 Sur 0 1001.2 0.3 68
2019-06-01 09:00:00 15.4 0 Calma 5 Oeste 0 1001.3 0.5 76
2019-06-01 08:00:00 13.3 2 Oeste 5 Oeste 0 1001.4 0.3 82
2019-06-01 07:00:00 13.8 3 Oeste 6 Oeste 0 1000.9 -0.2 81
2019-06-01 06:00:00 14.8 0 Calma 5 Oeste 0 1000.8 -0.4 77
2019-06-01 05:00:00 15.7 4 Sudoeste 6 Oeste 0 1001.1 -0.3 74
2019-06-01 04:00:00 16.8 2 Sudoeste 5 Oeste 0 1001.1 -0.4 71
2019-06-01 03:00:00 18.2 2 Oeste 5 Sur 0 1001.2 -0.5 66
2019-06-01 02:00:00 19.5 5 Oeste 6 Oeste 0 1001.4 0.4 62
2019-06-01 01:00:00 21.2 3 Oeste 8 Noroeste 0 1001.5 1.3 56
2019-06-01 00:00:00 23.3 2 Oeste 5 Oeste 0 1001.7 2 51
2019-05-31 23:00:00 26.2 3 Este 9 Sudoeste 0 1001 1.6 42
2019-05-31 22:00:00 29.8 3 Oeste 13 Oeste 0 1000.2 1.1 32
2019-05-31 21:00:00 32.4 5 Oeste 14 Noroeste 0 999.7 0.3 29
2019-05-31 20:00:00 33.8 9 Oeste 27 Oeste 0 999.4 -0.4 28
2019-05-31 19:00:00 35.6 4 Noroeste 19 Oeste 0 999.1 -1.2 19
2019-05-31 18:00:00 36.1 4 Norte 15 Nordeste 0 999.4 -1.4 18
2019-05-31 17:00:00 36.4 7 Sudoeste 14 Sudoeste 0 999.8 -1.6 16
2019-05-31 16:00:00 35.9 8 Sudeste 18 Sur 0 1000.3 -1.7 17
2019-05-31 15:00:00 34.5 6 Nordeste 18 Este 0 1000.8 -1.7 17
2019-05-31 14:00:00 33.9 5 Noroeste 15 Noroeste 0 1001.4 -1.8 22
2019-05-31 13:00:00 30.8 3 Nordeste 10 Oeste 0 1002 -1.7 37
2019-05-31 12:00:00 27 4 Noroeste 9 Norte 0 1002.5 -1.6 44
2019-05-31 11:00:00 22.4 3 Sudoeste 6 Oeste 0 1003.2 -0.9 57
2019-05-31 10:00:00 18.9 2 Sudoeste 5 Sur 0 1003.7 -0.2 67
2019-05-31 09:00:00 16 2 Sur 4 Oeste 0 1004.1 0.5 77
2019-05-31 08:00:00 13.9 0 Calma 5 Oeste 0 1004.1 0.6 83
2019-05-31 07:00:00 14.2 3 Sudoeste 6 Oeste 0 1003.9 0.3 81
2019-05-31 06:00:00 15.2 4 Oeste 5 Oeste 0 1003.6 0.1 78
2019-05-31 05:00:00 16.3 0 Calma 6 Noroeste 0 1003.5 -0.1 73
2019-05-31 04:00:00 17.5 4 Oeste 8 Oeste 0 1003.6 0.1 70
2019-05-31 03:00:00 18.8 3 Oeste 5 Sudoeste 0 1003.5 0 65
2019-05-31 02:00:00 20.7 0 Calma 10 Norte 0 1003.6 0.5 59
2019-05-31 01:00:00 23 5 Oeste 9 Oeste 0 1003.5 1.5 51
2019-05-31 00:00:00 25.6 4 Norte 13 Noroeste 0 1003.5 2 43
2019-05-30 23:00:00 27 3 Oeste 9 Noroeste 0 1003.1 1.8 40
2019-05-30 22:00:00 30.4 4 Noroeste 12 Norte 0 1002 0.2 30
2019-05-30 21:00:00 33 3 Norte 20 Nordeste 0 1001.5 -0.7 26
2019-05-30 20:00:00 33.9 5 Nordeste 19 Este 0 1001.3 -1.6 23
2019-05-30 19:00:00 34.4 5 Norte 18 Noroeste 0 1001.8 -1.6 19
2019-05-30 18:00:00 34.5 5 Noroeste 19 Noroeste 0 1002.2 -1.9 23
2019-05-30 17:00:00 34.2 8 Oeste 16 Oeste 0 1002.9 -1.7 24
2019-05-30 16:00:00 33 4 Norte 14 Norte 0 1003.4 -1.8 25
2019-05-30 15:00:00 31.2 5 Noroeste 14 Oeste 0 1004.1 -1.8 30
2019-05-30 14:00:00 29.6 3 Nordeste 12 Oeste 0 1004.6 -1.7 34
2019-05-30 13:00:00 27.6 6 Noroeste -- -- 0 1005.2 -1.5 38
2019-05-30 12:00:00 25.1 3 Norte 11 Noroeste 0 1005.9 -1.1 44
2019-05-30 11:00:00 21.3 3 Noroeste 8 Noroeste 0 1006.3 -0.5 56
2019-05-30 10:00:00 17.3 3 Sudeste 5 Sur 0 1006.7 0.4 71
2019-05-30 09:00:00 14.5 0 Calma 3 Sudoeste 0 1007 1.1 82
2019-05-30 08:00:00 11.9 0 Calma 5 Oeste 0 1006.8 1.2 87
2019-05-30 07:00:00 12.1 0 Calma 5 Oeste 0 1006.3 0.7 86
2019-05-30 06:00:00 13 0 Calma 4 Oeste 0 1005.9 0.4 84
2019-05-30 05:00:00 13.9 2 Sudeste 4 Sudoeste 0 1005.6 0.1 81
2019-05-30 04:00:00 15 0 Calma 5 Sur 0 1005.6 0.1 78
2019-05-30 03:00:00 16 2 Sur 7 Sur 0 1005.5 0.5 75
2019-05-30 02:00:00 17.5 3 Oeste 6 Oeste 0 1005.5 1 69
2019-05-30 01:00:00 19.8 3 Este 8 Noroeste 0 1005.5 2 61
2019-05-30 00:00:00 22 4 Nordeste 12 Noroeste 0 1005 1.9 53
2019-05-29 23:00:00 23.7 2 Norte 10 Noroeste 0 1004.5 1.9 48
2019-05-29 22:00:00 25.9 3 Nordeste 19 Noroeste 0 1003.5 0.8 43
2019-05-29 21:00:00 28.9 4 Norte 14 Nordeste 0 1003.1 0.3 36
2019-05-29 20:00:00 30.4 5 Noroeste 16 Norte 0 1002.6 -0.7 31
2019-05-29 19:00:00 30.8 5 Noroeste 19 Noroeste 0 1002.7 -1.1 27
2019-05-29 18:00:00 30.9 5 Noroeste 21 Noroeste 0 1002.8 -1.8 27
2019-05-29 17:00:00 30.2 4 Norte 20 Nordeste 0 1003.3 -1.9 29
2019-05-29 16:00:00 28.6 7 Noroeste 15 Noroeste 0 1003.8 -2 30
2019-05-29 15:00:00 27 6 Sudoeste 15 Sudoeste 0 1004.6 -1.5 36
2019-05-29 14:00:00 25.3 8 Sudoeste 15 Oeste 0 1005.2 -1.4 36
2019-05-29 13:00:00 22.7 4 Nordeste 12 Oeste 0 1005.8 -1.3 40
2019-05-29 12:00:00 20 4 Norte 10 Noroeste 0 1006.1 -1.4 50
2019-05-29 11:00:00 16.7 4 Noroeste 10 Oeste 0 1006.6 -0.8 55
2019-05-29 10:00:00 13.6 4 Sudoeste 6 Sur 0 1007.1 0.2 68
2019-05-29 09:00:00 10.5 5 Sur 8 Sur 0 1007.5 1.1 78
2019-05-29 08:00:00 8 3 Sudeste 10 Sudeste 0 1007.4 1.3 85
2019-05-29 07:00:00 8.6 3 Sudoeste 9 Sur 0 1006.9 0.8 80
2019-05-29 06:00:00 10.3 4 Sur 8 Este 0 1006.4 0 75
2019-05-29 05:00:00 12.3 4 Noroeste 13 Este 0 1006.1 0.2 70
2019-05-29 04:00:00 12.9 2 Norte 17 Noroeste 0 1006.1 0.5 68
2019-05-29 03:00:00 13.1 3 Noroeste 10 Norte 0 1006.4 0.9 66
2019-05-29 02:00:00 13.9 2 Norte 11 Noroeste 0 1005.9 1 63
2019-05-29 01:00:00 15.1 3 Norte 8 Noroeste 0 1005.6 1.6 58
2019-05-29 00:00:00 16.1 2 Norte 14 Noroeste 0 1005.5 2.1 53
2019-05-28 23:00:00 17.3 4 Norte 15 Nordeste 0 1004.9 2 49
2019-05-28 22:00:00 19 3 Nordeste 19 Norte 0 1004 1.6 43
2019-05-28 21:00:00 21.5 5 Norte 24 Noroeste 0 1003.4 1.1 34
2019-05-28 20:00:00 23 6 Norte 27 Noroeste 0 1002.9 0.5 33
2019-05-28 19:00:00 24.1 6 Norte 26 Noroeste 0 1002.4 0 29
2019-05-28 18:00:00 24.3 8 Norte 23 Noroeste 0 1002.3 -0.4 29
2019-05-28 17:00:00 24.8 7 Norte 24 Nordeste 0 1002.4 -0.7 31
2019-05-28 16:00:00 24.1 8 Norte 24 Norte 0 1002.4 -1 32
2019-05-28 15:00:00 23 5 Norte 21 Este 0 1002.7 -0.7 35
2019-05-28 14:00:00 21.8 7 Nordeste 19 Norte 0 1003.1 -0.4 39
2019-05-28 13:00:00 20.8 5 Norte 23 Este 0 1003.4 -0.3 43
2019-05-28 12:00:00 19.2 8 Nordeste 26 Nordeste 0 1003.4 -0.2 43
2019-05-28 11:00:00 17 5 Norte 19 Noroeste 0 1003.5 0.2 50
2019-05-28 10:00:00 14.5 4 Norte 11 Noroeste 0 1003.7 0.8 62
2019-05-28 09:00:00 11.3 2 Sudoeste 5 Oeste 0 1003.6 1.3 75
2019-05-28 08:00:00 9 2 Sudeste 8 Oeste 0 1003.3 1.5 84
2019-05-28 07:00:00 9.1 2 Sudoeste 5 Oeste 0 1002.9 1 81
2019-05-28 06:00:00 10.5 4 Oeste 9 Noroeste 0 1002.3 0.6 76
2019-05-28 05:00:00 11.3 2 Sudeste 8 Noroeste 0 1001.8 -0.1 73
2019-05-28 04:00:00 12.3 0 Calma 13 Este 0 1001.9 0 68
2019-05-28 03:00:00 12.8 3 Norte 11 Nordeste 0 1001.7 0.1 67
2019-05-28 02:00:00 13.3 3 Norte 10 Noroeste 0 1001.9 1.2 66
2019-05-28 01:00:00 13.8 2 Noroeste 17 Norte 0 1001.9 2 63
2019-05-28 00:00:00 15.2 5 Norte 23 Noroeste 0 1001.6 2.2 59
2019-05-27 23:00:00 17.5 3 Nordeste 17 Noroeste 0 1000.7 2 49
2019-05-27 22:00:00 19.3 5 Norte 20 Noroeste 0 999.9 1.5 37
2019-05-27 21:00:00 21.7 4 Norte 20 Nordeste 0 999.4 1.1 38
2019-05-27 20:00:00 23.6 6 Norte 24 Nordeste 0 998.7 0.5 38
2019-05-27 19:00:00 24.6 6 Norte 27 Nordeste 0 998.4 -0.2 38
2019-05-27 18:00:00 25.4 7 Norte 20 Noroeste 0 998.3 -0.8 39
2019-05-27 17:00:00 26.2 5 Nordeste 22 Noroeste 0 998.2 -1.7 39
2019-05-27 16:00:00 25.4 4 Norte 21 Nordeste 0 998.6 -1.7 38
2019-05-27 15:00:00 24.1 9 Norte 20 Nordeste 0 999.1 -1.7 41
2019-05-27 14:00:00 23.3 5 Norte 22 Este 0 999.9 -1.4 46
2019-05-27 13:00:00 22.6 6 Norte 20 Noroeste 0 1000.3 -1 50
2019-05-27 12:00:00 19.8 5 Norte 15 Oeste 0 1000.8 -0.7 64
2019-05-27 11:00:00 17.4 5 Sudoeste 11 Oeste 0 1001.3 0 72
2019-05-27 10:00:00 15.6 4 Noroeste 8 Noroeste 0 1001.3 0.3 75
2019-05-27 09:00:00 13.5 3 Sudeste 6 Sudeste 0 1001.5 0.4 83
2019-05-27 08:00:00 12.3 2 Sudoeste 6 Oeste 0 1001.3 0.2 86
2019-05-27 07:00:00 12.2 0 Calma 7 Oeste 0 1001 -0.4 84
2019-05-27 06:00:00 13.5 2 Sudoeste 9 Oeste 0 1001.1 -0.5 81
2019-05-27 05:00:00 14.5 2 Norte 8 Oeste 0 1001.1 -0.9 78
2019-05-27 04:00:00 15.4 3 Sudoeste 10 Noroeste 0 1001.4 -0.3 76
2019-05-27 03:00:00 16.5 2 Sudoeste 9 Oeste 0 1001.6 -0.5 71
2019-05-27 02:00:00 17.5 4 Oeste 15 Norte 0 1002 0.6 69
2019-05-27 01:00:00 18.6 4 Noroeste 19 Noroeste 0 1001.7 1.1 64
2019-05-27 00:00:00 20 4 Norte 19 Norte 0 1002.1 2.2 60